.
WxDataArchive / Data Records for 2016-03-15
2016-03-14 March 2016 2016-03-16

Data Records for Tuesday, 15 March 2016

Time	Temp	Chill	HIndex	Humid	Dewpt	 Wind 	HiWind	WindDir	Rain 	Barom
-----	----	-----	------	-----	-----	------	------	-------	-----	-----
00:00	52.2	52.2	52.2	84	47.5	1	2	292	0.00	29.723 
00:05	52.0	52.0	52.0	84	47.3	0	2	292	0.00	29.723 
00:10	51.9	51.9	51.9	84	47.2	1	3	292	0.00	29.723 
00:15	51.9	51.9	51.9	84	47.2	1	3	292	0.00	29.725 
00:20	51.7	51.7	51.7	84	47.0	1	3	292	0.00	29.725 
00:25	51.7	51.7	51.7	85	47.3	0	2	292	0.00	29.725 
00:30	51.6	51.6	51.6	85	47.2	0	1	292	0.00	29.728 
00:35	51.4	51.4	51.4	85	47.0	0	2	292	0.00	29.728 
00:40	51.4	51.4	51.4	85	47.0	0	0	---	0.00	29.728 
00:45	51.3	51.3	51.3	86	47.3	0	3	292	0.00	29.732 
00:50	51.1	51.1	51.1	86	47.1	0	2	292	0.00	29.732 
00:55	51.0	51.0	51.0	86	47.0	0	2	292	0.00	29.732 
01:00	50.7	50.7	50.7	86	46.7	0	2	292	0.00	29.729 
01:05	50.5	50.5	50.5	86	46.5	0	2	292	0.00	29.729 
01:10	50.2	50.2	50.2	86	46.2	0	0	---	0.00	29.729 
01:15	50.1	50.1	50.1	86	46.1	0	1	292	0.00	29.742 
01:20	49.9	49.9	49.9	87	46.2	0	2	292	0.00	29.742 
01:25	49.8	49.8	49.8	87	46.1	0	1	292	0.00	29.742 
01:30	49.8	49.8	49.8	87	46.1	0	1	292	0.00	29.745 
01:35	49.8	49.8	49.8	88	46.4	0	1	292	0.00	29.745 
01:40	49.8	49.8	49.8	88	46.4	0	0	---	0.00	29.745 
01:45	49.6	49.6	49.6	88	46.2	0	0	---	0.00	29.743 
01:50	49.5	49.5	49.5	88	46.1	0	0	---	0.00	29.743 
01:55	49.4	49.4	49.4	88	46.0	0	1	292	0.00	29.743 
02:00	49.4	49.4	49.4	88	46.0	0	1	292	0.00	29.743 
02:05	49.2	49.2	49.2	88	45.8	0	0	---	0.00	29.743 
02:10	49.1	49.1	49.1	88	45.7	0	0	---	0.00	29.743 
02:15	48.9	48.9	48.9	89	45.8	0	0	---	0.00	29.743 
02:20	48.8	48.8	48.8	89	45.7	0	0	---	0.00	29.743 
02:25	48.6	48.6	48.6	89	45.5	0	0	---	0.00	29.743 
02:30	48.5	48.5	48.5	89	45.4	0	0	---	0.00	29.740 
02:35	48.3	48.3	48.3	89	45.2	0	0	---	0.00	29.740 
02:40	48.0	48.0	48.0	89	44.9	0	0	---	0.00	29.740 
02:45	47.9	47.9	47.9	89	44.8	0	0	---	0.00	29.740 
02:50	47.6	47.6	47.6	89	44.5	0	0	---	0.00	29.740 
02:55	47.3	47.3	47.3	89	44.2	0	0	---	0.00	29.740 
03:00	47.1	47.1	47.1	89	44.0	0	0	---	0.00	29.737 
03:05	46.8	46.8	46.8	89	43.7	0	0	---	0.00	29.737 
03:10	46.5	46.5	46.5	90	43.7	0	0	---	0.00	29.737 
03:15	46.2	46.2	46.2	90	43.4	0	0	---	0.00	29.738 
03:20	46.0	46.0	46.0	90	43.2	0	0	---	0.00	29.738 
03:25	45.7	45.7	45.7	90	42.9	0	0	---	0.00	29.738 
03:30	45.4	45.4	45.4	90	42.6	0	0	---	0.00	29.749 
03:35	45.4	45.4	45.4	91	42.9	0	0	---	0.00	29.749 
03:40	45.5	45.5	45.5	91	43.0	0	0	---	0.00	29.749 
03:45	45.4	45.4	45.4	91	42.9	0	0	---	0.00	29.750 
03:50	45.4	45.4	45.4	92	43.2	0	0	---	0.00	29.750 
03:55	45.4	45.4	45.4	92	43.2	0	1	292	0.00	29.750 
04:00	45.2	45.2	45.2	92	43.0	0	0	---	0.00	29.751 
04:05	45.2	45.2	45.2	92	43.0	0	0	---	0.00	29.751 
04:10	45.1	45.1	45.1	92	42.9	0	0	---	0.00	29.751 
04:15	45.1	45.1	45.1	92	42.9	0	0	---	0.00	29.751 
04:20	45.1	45.1	45.1	92	42.9	0	0	---	0.00	29.751 
04:25	44.9	44.9	44.9	92	42.7	0	0	---	0.00	29.751 
04:30	44.6	44.6	44.6	92	42.4	0	0	---	0.00	29.750 
04:35	44.3	44.3	44.3	92	42.1	0	0	---	0.00	29.750 
04:40	44.2	44.2	44.2	92	42.0	0	0	---	0.00	29.750 
04:45	44.1	44.1	44.1	93	42.2	0	0	---	0.00	29.753 
04:50	44.1	44.1	44.1	93	42.2	0	0	---	0.00	29.753 
04:55	44.1	44.1	44.1	93	42.2	0	0	---	0.00	29.753 
05:00	43.9	43.9	43.9	93	42.0	0	0	---	0.00	29.758 
05:05	43.8	43.8	43.8	93	41.9	0	0	---	0.00	29.758 
05:10	43.8	43.8	43.8	93	41.9	0	0	---	0.00	29.758 
05:15	43.8	43.8	43.8	93	41.9	0	0	---	0.00	29.765 
05:20	43.6	43.6	43.6	93	41.7	0	0	---	0.00	29.765 
05:25	43.6	43.6	43.6	93	41.7	0	0	---	0.00	29.765 
05:30	43.5	43.5	43.5	93	41.6	0	0	---	0.00	29.766 
05:35	43.3	43.3	43.3	93	41.4	0	0	---	0.00	29.766 
05:40	43.2	43.2	43.2	93	41.3	0	0	---	0.00	29.766 
05:45	43.1	43.1	43.1	93	41.2	0	0	---	0.00	29.765 
05:50	43.1	43.1	43.1	94	41.5	0	0	---	0.00	29.765 
05:55	42.9	42.9	42.9	94	41.3	0	0	---	0.00	29.765 
06:00	42.8	42.8	42.8	94	41.2	0	0	---	0.00	29.765 
06:05	42.6	42.6	42.6	93	40.7	0	0	---	0.00	29.765 
06:10	42.2	42.2	42.2	93	40.3	0	0	---	0.00	29.765 
06:15	41.9	41.9	41.9	94	40.3	0	0	---	0.00	29.764 
06:20	41.8	41.8	41.8	94	40.2	0	0	---	0.00	29.764 
06:25	41.6	41.6	41.6	94	40.0	0	0	---	0.00	29.764 
06:30	41.3	41.3	41.3	94	39.7	0	0	---	0.00	29.767 
06:35	41.2	41.2	41.2	94	39.6	0	0	---	0.00	29.767 
06:40	41.3	41.3	41.3	94	39.7	0	1	292	0.00	29.767 
06:45	41.8	41.8	41.8	94	40.2	0	0	---	0.00	29.769 
06:50	42.1	42.1	42.1	95	40.8	0	0	---	0.00	29.769 
06:55	42.2	42.2	42.2	95	40.9	0	0	---	0.00	29.769 
07:00	42.2	42.2	42.2	94	40.6	0	0	---	0.00	29.775 
07:05	42.2	42.2	42.2	94	40.6	0	0	---	0.00	29.775 
07:10	42.1	42.1	42.1	94	40.5	0	0	---	0.00	29.775 
07:15	41.9	41.9	41.9	94	40.3	0	0	---	0.00	29.787 
07:20	41.9	41.9	41.9	95	40.6	0	0	---	0.00	29.787 
07:25	41.9	41.9	41.9	95	40.6	0	0	---	0.00	29.787 
07:30	42.1	42.1	42.1	95	40.8	0	0	---	0.00	29.786 
07:35	42.1	42.1	42.1	95	40.8	0	0	---	0.00	29.786 
07:40	42.1	42.1	42.1	95	40.8	0	0	---	0.00	29.786 
07:45	42.1	42.1	42.1	95	40.8	0	0	---	0.00	29.788 
07:50	41.9	41.9	41.9	95	40.6	0	0	---	0.00	29.788 
07:55	41.9	41.9	41.9	95	40.6	0	0	---	0.00	29.788 
08:00	41.9	41.9	41.9	95	40.6	0	0	---	0.00	29.789 
08:05	41.9	41.9	41.9	95	40.6	0	0	---	0.00	29.789 
08:10	41.8	41.8	41.8	95	40.5	0	0	---	0.00	29.789 
08:15	41.6	41.6	41.6	95	40.3	0	0	---	0.00	29.792 
08:20	41.6	41.6	41.6	95	40.3	0	0	---	0.00	29.792 
08:25	41.6	41.6	41.6	95	40.3	0	0	---	0.00	29.792 
08:30	41.6	41.6	41.6	95	40.3	0	0	---	0.00	29.797 
08:35	41.6	41.6	41.6	95	40.3	0	0	---	0.00	29.797 
08:40	41.6	41.6	41.6	95	40.3	0	0	---	0.00	29.797 
08:45	41.6	41.6	41.6	95	40.3	0	0	---	0.00	29.797 
08:50	41.6	41.6	41.6	95	40.3	0	1	292	0.00	29.797 
08:55	41.6	41.6	41.6	95	40.3	0	0	---	0.00	29.797 
09:00	41.6	41.6	41.6	95	40.3	0	0	---	0.00	29.804 
09:05	41.8	41.8	41.8	95	40.5	0	0	---	0.00	29.804 
09:10	41.8	41.8	41.8	95	40.5	0	0	---	0.00	29.804 
09:15	41.9	41.9	41.9	96	40.8	0	0	---	0.00	29.815 
09:20	42.1	42.1	42.1	96	41.0	0	1	292	0.00	29.815 
09:25	42.3	42.3	42.3	96	41.2	0	0	---	0.00	29.815 
09:30	42.5	42.5	42.5	96	41.4	0	0	---	0.00	29.812 
09:35	42.8	42.8	42.8	96	41.7	0	0	---	0.00	29.812 
09:40	42.9	42.9	42.9	96	41.8	0	0	---	0.00	29.812 
09:45	43.3	43.3	43.3	96	42.2	0	0	---	0.00	29.804 
09:50	43.5	43.5	43.5	96	42.4	0	0	---	0.00	29.804 
09:55	43.8	43.8	43.8	96	42.7	0	1	292	0.00	29.804 
10:00	44.1	44.1	44.1	96	43.0	0	2	292	0.00	29.812 
10:05	44.2	44.2	44.2	96	43.1	0	1	292	0.00	29.812 
10:10	44.3	44.3	44.3	96	43.2	0	2	292	0.00	29.812 
10:15	44.5	44.5	44.5	96	43.4	0	1	292	0.00	29.809 
10:20	44.6	44.6	44.6	96	43.5	0	2	292	0.00	29.809 
10:25	44.8	44.8	44.8	96	43.7	0	1	292	0.00	29.809 
10:30	44.9	44.9	44.9	96	43.8	0	1	292	0.00	29.810 
10:35	45.1	45.1	45.1	96	44.0	0	1	292	0.00	29.810 
10:40	45.7	45.7	45.7	96	44.6	1	4	292	0.00	29.810 
10:45	45.8	45.8	45.8	96	44.7	0	4	68	0.00	29.816 
10:50	46.0	46.0	46.0	96	44.9	0	2	68	0.00	29.816 
10:55	46.1	46.1	46.1	96	45.0	0	2	68	0.00	29.816 
11:00	46.2	46.2	46.2	96	45.1	1	3	68	0.00	29.818 
11:05	46.4	46.4	46.4	96	45.3	0	3	68	0.00	29.818 
11:10	46.5	46.5	46.5	96	45.4	1	3	68	0.00	29.818 
11:15	46.8	46.8	46.8	96	45.7	0	2	68	0.00	29.816 
11:20	47.3	47.3	47.3	96	46.2	0	3	68	0.00	29.816 
11:25	47.6	47.6	47.6	96	46.5	0	2	68	0.00	29.816 
11:30	48.0	48.0	48.0	96	46.9	1	3	68	0.00	29.813 
11:35	48.3	48.3	48.3	96	47.2	1	3	68	0.00	29.813 
11:40	48.8	48.8	48.8	96	47.7	1	3	68	0.00	29.813 
11:45	49.2	49.2	49.2	96	48.1	1	4	68	0.00	29.807 
11:50	49.8	49.8	49.8	95	48.4	1	3	68	0.00	29.807 
11:55	50.1	50.1	50.1	94	48.4	1	4	68	0.00	29.807 
12:00	50.4	50.4	50.4	93	48.5	1	4	68	0.00	29.800 
12:05	50.8	50.8	50.8	92	48.6	0	2	68	0.00	29.800 
12:10	51.1	51.1	51.1	91	48.6	2	5	68	0.00	29.800 
12:15	51.6	51.6	51.6	90	48.8	1	4	68	0.00	29.799 
12:20	51.9	51.9	51.9	89	48.8	1	3	68	0.00	29.799 
12:25	52.2	52.2	52.2	88	48.8	1	5	68	0.00	29.799 
12:30	52.2	52.2	52.2	87	48.4	2	6	90	0.00	29.799 
12:35	52.3	52.3	52.3	87	48.5	1	3	90	0.00	29.799 
12:40	52.6	52.6	52.6	87	48.8	1	4	90	0.00	29.799 
12:45	52.9	52.9	52.9	87	49.1	1	4	90	0.00	29.797 
12:50	53.1	53.1	53.1	85	48.7	2	5	90	0.00	29.797 
12:55	53.2	53.2	53.2	86	49.1	1	3	90	0.00	29.797 
13:00	53.3	53.3	53.3	85	48.9	1	4	90	0.00	29.794 
13:05	53.5	53.5	53.5	84	48.8	1	3	90	0.00	29.794 
13:10	53.6	53.6	53.6	84	48.9	2	5	90	0.00	29.794 
13:15	53.8	53.8	53.8	84	49.1	2	5	90	0.00	29.784 
13:20	54.1	54.1	54.1	84	49.4	2	5	90	0.00	29.784 
13:25	54.1	54.1	54.1	83	49.1	3	6	90	0.00	29.784 
13:30	54.1	54.1	54.1	83	49.1	1	4	90	0.00	29.782 
13:35	54.2	54.2	54.2	82	48.8	2	5	90	0.00	29.782 
13:40	54.4	54.4	54.4	82	49.0	1	5	90	0.00	29.782 
13:45	54.5	54.5	54.5	82	49.1	1	3	90	0.00	29.780 
13:50	54.5	54.5	54.5	82	49.1	0	2	90	0.00	29.780 
13:55	54.7	54.7	54.7	82	49.3	1	3	90	0.00	29.780 
14:00	54.8	54.8	54.8	82	49.4	2	4	90	0.00	29.769 
14:05	55.0	55.0	55.0	82	49.6	1	5	90	0.00	29.769 
14:10	55.0	55.0	55.0	83	49.9	2	6	90	0.00	29.769 
14:15	55.1	55.1	55.1	83	50.0	2	6	90	0.00	29.763 
14:20	55.6	55.6	55.6	83	50.5	1	4	90	0.00	29.763 
14:25	55.7	55.7	55.7	82	50.3	2	5	90	0.00	29.763 
14:30	55.7	55.7	55.7	81	50.0	3	6	112	0.00	29.753 
14:35	55.7	55.7	55.7	81	50.0	3	6	90	0.00	29.753 
14:40	55.7	55.7	55.7	82	50.3	3	6	90	0.00	29.753 
14:45	55.9	55.9	55.9	81	50.2	1	4	90	0.00	29.750 
14:50	56.0	56.0	56.0	81	50.3	1	4	90	0.00	29.750 
14:55	56.2	56.2	56.2	81	50.4	3	6	90	0.00	29.750 
15:00	56.2	56.2	56.2	81	50.4	3	9	90	0.00	29.741 
15:05	56.3	56.3	56.3	81	50.5	2	7	90	0.00	29.741 
15:10	56.5	56.5	56.5	81	50.7	3	7	90	0.00	29.741 
15:15	56.3	56.3	56.3	81	50.5	4	10	112	0.00	29.738 
15:20	56.5	56.5	56.5	81	50.7	3	6	112	0.00	29.738 
15:25	56.6	56.6	56.6	81	50.8	3	7	112	0.00	29.738 
15:30	56.6	56.6	56.6	81	50.8	2	5	90	0.00	29.738 
15:35	56.6	56.6	56.6	81	50.8	2	5	112	0.00	29.738 
15:40	56.6	56.6	56.6	81	50.8	3	5	112	0.00	29.738 
15:45	56.6	56.6	56.6	81	50.8	2	5	112	0.00	29.735 
15:50	56.6	56.6	56.6	81	50.8	2	7	90	0.00	29.735 
15:55	56.6	56.6	56.6	81	50.8	4	9	90	0.00	29.735 
16:00	56.6	56.6	56.6	81	50.8	3	9	112	0.00	29.730 
16:05	56.6	56.6	56.6	81	50.8	3	6	112	0.00	29.730 
16:10	56.7	56.7	56.7	81	50.9	3	9	90	0.00	29.730 
16:15	56.9	56.9	56.9	81	51.1	3	9	90	0.00	29.721 
16:20	57.0	57.0	57.0	81	51.2	3	7	90	0.00	29.721 
16:25	57.3	57.3	57.3	80	51.2	4	9	90	0.00	29.721 
16:30	57.5	57.5	57.5	80	51.4	4	10	90	0.00	29.716 
16:35	57.6	57.6	57.6	79	51.1	3	5	90	0.00	29.716 
16:40	57.8	57.8	57.8	80	51.7	4	9	90	0.00	29.716 
16:45	57.6	57.6	57.6	79	51.1	4	9	90	0.00	29.706 
16:50	57.5	57.5	57.5	80	51.4	4	7	90	0.00	29.706 
16:55	57.5	57.5	57.5	80	51.4	3	6	90	0.00	29.706 
17:00	57.8	57.8	57.8	80	51.7	4	9	112	0.00	29.701 
17:05	57.8	57.8	57.8	80	51.7	4	10	90	0.00	29.701 
17:10	58.0	58.0	58.0	80	51.9	4	11	90	0.00	29.701 
17:15	58.0	58.0	58.0	80	51.9	5	11	90	0.00	29.692 
17:20	57.8	57.8	57.8	80	51.7	4	7	112	0.00	29.692 
17:25	57.8	57.8	57.8	80	51.7	4	9	90	0.00	29.692 
17:30	58.0	58.0	58.0	80	51.9	5	11	90	0.00	29.689 
17:35	57.8	57.8	57.8	80	51.7	5	10	90	0.00	29.689 
17:40	57.8	57.8	57.8	80	51.7	4	7	112	0.00	29.689 
17:45	57.8	57.8	57.8	80	51.7	5	11	112	0.00	29.683 
17:50	57.8	57.8	57.8	80	51.7	6	13	90	0.00	29.683 
17:55	57.6	57.6	57.6	81	51.8	4	9	90	0.00	29.683 
18:00	57.5	57.5	57.5	81	51.7	5	12	90	0.00	29.681 
18:05	57.5	57.5	57.5	81	51.7	4	9	90	0.00	29.681 
18:10	57.5	57.5	57.5	81	51.7	4	6	90	0.00	29.681 
18:15	57.5	57.5	57.5	82	52.0	4	11	90	0.00	29.684 
18:20	57.3	57.3	57.3	81	51.5	5	10	112	0.00	29.684 
18:25	57.3	57.3	57.3	82	51.9	4	7	112	0.00	29.684 
18:30	57.2	57.2	57.2	81	51.4	4	11	112	0.00	29.678 
18:35	57.0	57.0	57.0	81	51.2	6	11	112	0.00	29.678 
18:40	57.0	57.0	57.0	82	51.6	4	11	90	0.00	29.678 
18:45	56.9	56.9	56.9	82	51.5	5	10	112	0.00	29.676 
18:50	56.7	56.7	56.7	82	51.3	5	10	112	0.00	29.676 
18:55	56.5	56.5	56.5	83	51.4	4	9	90	0.00	29.676 
19:00	56.3	56.3	56.3	83	51.2	6	11	90	0.00	29.672 
19:05	56.0	56.0	56.0	83	50.9	6	12	90	0.00	29.672 
19:10	55.9	55.9	55.9	84	51.1	5	10	90	0.00	29.672 
19:15	55.7	55.7	55.7	84	50.9	4	10	90	0.00	29.669 
19:20	55.6	55.6	55.6	84	50.8	4	11	90	0.00	29.669 
19:25	55.6	55.6	55.6	85	51.2	5	10	90	0.00	29.669 
19:30	55.4	55.4	55.4	85	51.0	5	11	90	0.00	29.673 
19:35	55.3	55.3	55.3	85	50.9	4	8	90	0.00	29.673 
19:40	55.0	55.0	55.0	85	50.6	5	9	90	0.00	29.673 
19:45	54.8	54.8	54.8	86	50.7	4	9	90	0.00	29.675 
19:50	54.7	54.7	54.7	86	50.6	4	9	90	0.00	29.675 
19:55	54.5	54.5	54.5	86	50.4	5	11	90	0.00	29.675 
20:00	54.5	54.5	54.5	86	50.4	4	9	90	0.00	29.673 
20:05	54.4	54.4	54.4	87	50.6	4	10	112	0.00	29.673 
20:10	54.2	54.2	54.2	87	50.4	4	9	112	0.00	29.673 
20:15	54.1	54.1	54.1	87	50.3	5	9	112	0.00	29.667 
20:20	54.1	54.1	54.1	87	50.3	6	12	90	0.00	29.667 
20:25	54.1	54.1	54.1	87	50.3	4	10	90	0.00	29.667 
20:30	53.9	53.9	53.9	87	50.1	5	15	112	0.00	29.664 
20:35	53.9	53.9	53.9	87	50.1	5	10	112	0.00	29.664 
20:40	53.8	53.8	53.8	87	50.0	5	11	90	0.00	29.664 
20:45	53.8	53.8	53.8	87	50.0	5	10	90	0.00	29.667 
20:50	53.6	53.6	53.6	87	49.8	4	10	112	0.00	29.667 
20:55	53.6	53.6	53.6	87	49.8	4	9	90	0.00	29.667 
21:00	53.6	53.6	53.6	88	50.1	6	11	90	0.00	29.663 
21:05	53.5	53.5	53.5	88	50.0	4	11	90	0.00	29.663 
21:10	53.5	53.5	53.5	88	50.0	5	13	90	0.00	29.663 
21:15	53.3	53.3	53.3	88	49.8	5	12	90	0.00	29.657 
21:20	53.3	53.3	53.3	88	49.8	5	14	112	0.00	29.657 
21:25	53.2	53.2	53.2	88	49.7	6	15	112	0.00	29.657 
21:30	53.1	53.1	53.1	88	49.6	5	10	112	0.00	29.648 
21:35	53.1	53.1	53.1	89	49.9	5	11	90	0.00	29.648 
21:40	52.9	52.9	52.9	89	49.7	5	11	90	0.00	29.648 
21:45	52.9	52.9	52.9	89	49.7	5	13	90	0.00	29.644 
21:50	52.9	52.9	52.9	89	49.7	6	10	112	0.00	29.644 
21:55	52.9	52.9	52.9	89	49.7	6	13	90	0.00	29.644 
22:00	52.9	52.9	52.9	89	49.7	5	11	112	0.00	29.630 
22:05	52.9	52.9	52.9	89	49.7	6	13	90	0.00	29.630 
22:10	52.8	52.8	52.8	90	49.9	4	13	90	0.00	29.630 
22:15	52.8	52.8	52.8	89	49.6	5	11	112	0.00	29.627 
22:20	52.8	52.8	52.8	90	49.9	5	11	90	0.00	29.627 
22:25	52.6	52.6	52.6	90	49.7	5	10	90	0.00	29.627 
22:30	52.6	52.6	52.6	90	49.7	5	10	112	0.00	29.624 
22:35	52.6	52.6	52.6	90	49.7	6	12	112	0.00	29.624 
22:40	52.6	52.6	52.6	90	49.7	6	13	90	0.00	29.624 
22:45	52.6	52.6	52.6	90	49.7	6	11	112	0.00	29.614 
22:50	52.5	52.5	52.5	90	49.7	5	11	90	0.00	29.614 
22:55	52.5	52.5	52.5	90	49.7	6	13	90	0.00	29.614 
23:00	52.3	52.3	52.3	90	49.5	4	9	90	0.00	29.607 
23:05	52.3	52.3	52.3	90	49.5	5	11	90	0.00	29.607 
23:10	52.2	52.2	52.2	90	49.4	5	12	112	0.00	29.607 
23:15	52.2	52.2	52.2	90	49.4	5	12	90	0.00	29.596 
23:20	52.0	52.0	52.0	90	49.2	5	11	90	0.00	29.596 
23:25	51.9	51.9	51.9	90	49.1	5	11	90	0.00	29.596 
23:30	51.9	51.9	51.9	90	49.1	6	12	90	0.00	29.579 
23:35	51.7	51.7	51.7	90	48.9	5	11	90	0.00	29.579 
23:40	51.7	51.7	51.7	90	48.9	5	11	90	0.00	29.579 
23:45	51.6	51.6	51.6	88	48.2	4	9	112	0.00	29.554 
23:50	51.6	51.6	51.6	91	49.1	6	13	112	0.00	29.554 
23:55	51.6	51.6	51.6	91	49.1	5	9	112	0.00	29.554 

CoCoRaHS
IN-AL-39
A2 Web Hosting
Creative Commons License
GoDaddy
search engine by freefind advanced

loaded 2018-11-20 06:11:31 • last modified 2010-11-18 10:43:29
Privacy PolicyDisclaimer
• wx.awcolley.com is powered by PmWiki v.2002016 •
• all content (unless otherwise noted) © 2018 A W Colley